createdAt,value
2018-04-17T00:00:03.359Z,13.49
2018-04-17T00:05:04.673Z,13.58
2018-04-17T00:10:06.009Z,13.56
2018-04-17T00:15:07.302Z,13.42
2018-04-17T00:20:08.627Z,13.43
2018-04-17T00:25:09.949Z,13.42
2018-04-17T00:30:11.293Z,13.30
2018-04-17T00:35:12.620Z,13.27
2018-04-17T00:40:14.658Z,13.26
2018-04-17T00:45:15.975Z,13.20
2018-04-17T00:50:17.293Z,13.10
2018-04-17T00:55:18.595Z,13.11
2018-04-17T01:00:20.685Z,13.12
2018-04-17T01:05:22.034Z,13.04
2018-04-17T01:10:23.374Z,12.93
2018-04-17T01:15:25.431Z,12.78
2018-04-17T01:20:26.754Z,12.65
2018-04-17T01:25:28.113Z,12.59
2018-04-17T01:30:29.417Z,12.51
2018-04-17T01:35:30.767Z,12.66
2018-04-17T01:40:32.074Z,12.60
2018-04-17T01:45:33.398Z,12.64
2018-04-17T01:50:34.697Z,12.50
2018-04-17T01:55:36.034Z,12.58
2018-04-17T02:00:37.349Z,12.51
2018-04-17T02:05:38.661Z,12.45
2018-04-17T02:10:39.963Z,12.32
2018-04-17T02:15:41.279Z,12.13
2018-04-17T02:20:42.620Z,12.19
2018-04-17T02:25:43.938Z,12.09
2018-04-17T02:30:46.007Z,11.71
2018-04-17T02:35:47.334Z,11.93
2018-04-17T02:40:49.403Z,11.99
2018-04-17T02:45:50.728Z,11.82
2018-04-17T02:50:52.802Z,11.76
2018-04-17T02:55:54.110Z,11.92
2018-04-17T03:00:55.427Z,12.01
2018-04-17T03:05:56.743Z,11.99
2018-04-17T03:10:58.049Z,11.84
2018-04-17T03:15:59.361Z,11.97
2018-04-17T03:21:00.721Z,12.03
2018-04-17T03:26:02.040Z,11.95
2018-04-17T03:31:03.355Z,12.08
2018-04-17T03:36:05.435Z,11.95
2018-04-17T03:41:06.749Z,11.86
2018-04-17T03:46:08.808Z,11.93
2018-04-17T03:51:10.135Z,11.73
2018-04-17T03:56:12.178Z,11.45
2018-04-17T04:01:13.505Z,11.61
2018-04-17T04:06:14.823Z,11.59
2018-04-17T04:11:16.870Z,11.61
2018-04-17T04:16:36.618Z,11.49
2018-04-17T04:21:56.399Z,11.54
2018-04-17T04:26:57.739Z,11.49
2018-04-17T04:31:59.050Z,11.46
2018-04-17T04:37:01.162Z,11.55
2018-04-17T04:42:03.237Z,11.61
2018-04-17T04:47:04.574Z,11.61
2018-04-17T04:52:06.707Z,11.61
2018-04-17T04:57:08.733Z,11.61
2018-04-17T05:02:10.083Z,11.71
2018-04-17T05:07:11.386Z,11.80
2018-04-17T05:12:12.747Z,11.80
2018-04-17T05:17:14.786Z,12.10
2018-04-17T05:22:16.107Z,12.17
2018-04-17T05:27:17.414Z,12.41
2018-04-17T05:32:19.460Z,12.76
2018-04-17T05:37:20.799Z,12.72
2018-04-17T05:42:22.147Z,12.61
2018-04-17T05:47:23.469Z,12.59
2018-04-17T05:52:24.809Z,12.70
2018-04-17T05:57:26.114Z,13.06
2018-04-17T06:02:27.435Z,13.25
2018-04-17T06:07:28.745Z,13.42
2018-04-17T06:12:30.782Z,13.50
2018-04-17T06:17:32.101Z,13.64
2018-04-17T06:22:33.403Z,13.63
2018-04-17T06:27:34.740Z,13.87
2018-04-17T06:32:36.798Z,14.19
2018-04-17T06:37:38.115Z,14.55
2018-04-17T06:42:40.188Z,14.78
2018-04-17T06:47:41.563Z,14.82
2018-04-17T06:52:43.642Z,14.91
2018-04-17T06:57:44.908Z,15.04
2018-04-17T07:02:46.218Z,15.21
2018-04-17T07:07:48.270Z,15.42
2018-04-17T07:12:49.593Z,15.72
2018-04-17T07:17:50.898Z,15.94
2018-04-17T07:22:52.941Z,16.11
2018-04-17T07:27:54.254Z,16.33
2018-04-17T07:32:55.584Z,16.50
2018-04-17T07:37:57.656Z,16.69
2018-04-17T07:42:58.979Z,16.72
2018-04-17T07:48:22.485Z,17.09
2018-04-17T07:53:24.545Z,17.25
2018-04-17T07:58:25.902Z,17.55
2018-04-17T08:03:27.240Z,17.79
2018-04-17T08:08:28.538Z,18.05
2018-04-17T08:13:29.846Z,18.17
2018-04-17T08:18:31.918Z,18.37
2018-04-17T08:23:33.234Z,18.58
2018-04-17T08:28:35.307Z,18.77
2018-04-17T08:33:36.617Z,19.00
2018-04-17T08:38:37.927Z,19.28
2018-04-17T08:43:39.971Z,19.43
2018-04-17T08:48:41.299Z,19.44
2018-04-17T08:53:42.620Z,19.74
2018-04-17T08:58:44.687Z,19.44
2018-04-17T09:03:46.007Z,19.66
2018-04-17T09:08:48.047Z,19.99
2018-04-17T09:13:49.373Z,20.17
2018-04-17T09:18:50.700Z,20.46
2018-04-17T09:23:52.759Z,20.66
2018-04-17T09:28:54.071Z,20.77
2018-04-17T09:33:55.382Z,21.18
2018-04-17T09:38:57.418Z,21.59
2018-04-17T09:43:58.739Z,21.89
2018-04-17T09:49:00.050Z,22.30
2018-04-17T09:54:02.103Z,22.47
2018-04-17T09:59:03.438Z,22.32
2018-04-17T10:04:04.779Z,22.23
2018-04-17T10:09:06.179Z,22.00
2018-04-17T10:14:08.191Z,21.72
2018-04-17T10:19:09.506Z,21.54
2018-04-17T10:24:10.824Z,21.17
2018-04-17T10:29:12.939Z,20.95
2018-04-17T10:34:14.270Z,20.94
2018-04-17T10:39:15.578Z,21.12
2018-04-17T10:44:16.898Z,21.16
2018-04-17T10:49:18.951Z,21.08
2018-04-17T10:54:20.269Z,21.39
2018-04-17T10:59:21.582Z,21.66
2018-04-17T11:04:22.922Z,21.54
2018-04-17T11:09:24.263Z,21.52
2018-04-17T11:14:26.300Z,21.60
2018-04-17T11:19:27.620Z,21.59
2018-04-17T11:24:28.955Z,21.87
2018-04-17T11:29:30.271Z,21.95
2018-04-17T11:34:31.617Z,22.46
2018-04-17T11:39:33.670Z,22.78
2018-04-17T11:44:34.991Z,22.94
2018-04-17T11:49:36.326Z,23.14
2018-04-17T11:54:37.633Z,23.31
2018-04-17T11:59:38.995Z,23.38
2018-04-17T12:04:41.075Z,23.33
2018-04-17T12:09:42.411Z,23.50
2018-04-17T12:14:43.769Z,23.10
2018-04-17T12:19:45.080Z,23.47
2018-04-17T12:24:46.402Z,23.38
2018-04-17T12:29:47.727Z,23.23
2018-04-17T12:34:49.037Z,22.87
2018-04-17T12:39:50.365Z,23.09
2018-04-17T12:44:51.689Z,23.09
2018-04-17T12:49:53.022Z,23.35
2018-04-17T12:54:54.355Z,23.10
2018-04-17T12:59:55.677Z,23.21
2018-04-17T13:04:57.766Z,23.29
2018-04-17T13:09:59.089Z,23.19
2018-04-17T13:15:00.419Z,23.28
2018-04-17T13:20:01.751Z,23.31
2018-04-17T13:25:03.825Z,23.36
2018-04-17T13:30:05.158Z,23.32
2018-04-17T13:35:06.475Z,23.49
2018-04-17T13:40:07.838Z,23.49
2018-04-17T13:45:09.883Z,23.51
2018-04-17T13:50:12.126Z,23.45
2018-04-17T13:55:13.457Z,23.87
2018-04-17T14:00:14.826Z,23.96
2018-04-17T14:05:16.885Z,24.12
2018-04-17T14:10:18.218Z,24.29
2018-04-17T14:15:20.268Z,24.45
2018-04-17T14:20:21.592Z,24.58
2018-04-17T14:25:22.923Z,24.69
2018-04-17T14:30:24.222Z,25.00
2018-04-17T14:35:25.554Z,25.23
2018-04-17T14:40:26.922Z,25.06
2018-04-17T14:45:28.250Z,24.62
2018-04-17T14:50:29.611Z,24.96
2018-04-17T14:55:30.956Z,25.34
2018-04-17T15:00:32.287Z,25.46
2018-04-17T15:05:33.618Z,25.04
2018-04-17T15:10:35.728Z,24.93
2018-04-17T15:15:37.783Z,25.03
2018-04-17T15:20:39.106Z,25.03
2018-04-17T15:25:40.401Z,25.10
2018-04-17T15:30:41.699Z,25.29
2018-04-17T15:35:43.767Z,25.24
2018-04-17T15:40:45.138Z,25.10
2018-04-17T15:45:46.490Z,25.16
2018-04-17T15:50:48.602Z,25.23
2018-04-17T15:55:50.679Z,25.26
2018-04-17T16:00:52.006Z,25.12
2018-04-17T16:05:53.413Z,24.86
2018-04-17T16:10:55.530Z,24.57
2018-04-17T16:15:56.859Z,24.41
2018-04-17T16:20:58.203Z,23.96
2018-04-17T16:25:59.539Z,23.73
2018-04-17T16:31:00.901Z,23.53
2018-04-17T16:36:02.223Z,23.41
2018-04-17T16:41:03.596Z,23.80
2018-04-17T16:46:04.915Z,23.89
2018-04-17T16:51:06.980Z,24.02
2018-04-17T16:56:08.298Z,23.92
2018-04-17T17:01:09.599Z,23.88
2018-04-17T17:06:10.949Z,23.79
2018-04-17T17:11:12.269Z,23.60
2018-04-17T17:16:13.584Z,23.49
2018-04-17T17:21:14.937Z,23.02
2018-04-17T17:26:16.285Z,22.86
2018-04-17T17:31:17.625Z,22.82
2018-04-17T17:36:18.951Z,22.82
2018-04-17T17:41:20.367Z,22.64
2018-04-17T17:46:21.900Z,22.39
2018-04-17T17:51:24.050Z,22.11
2018-04-17T17:56:25.357Z,22.00
2018-04-17T18:01:26.691Z,21.99
2018-04-17T18:06:28.305Z,21.75
2018-04-17T18:11:29.722Z,21.69
2018-04-17T18:16:31.068Z,21.59
2018-04-17T18:21:32.462Z,21.37
2018-04-17T18:26:33.830Z,21.22
2018-04-17T18:31:35.144Z,21.08
2018-04-17T18:36:37.209Z,21.01
2018-04-17T18:41:38.548Z,20.79
2018-04-17T18:46:40.467Z,20.69
2018-04-17T18:51:41.843Z,20.48
2018-04-17T18:56:44.020Z,20.29
2018-04-17T19:01:46.195Z,20.12
2018-04-17T19:06:48.517Z,20.05
2018-04-17T19:11:49.817Z,20.02
2018-04-17T19:16:51.853Z,19.82
2018-04-17T19:21:53.909Z,19.65
2018-04-17T19:26:56.023Z,19.55
2018-04-17T19:31:57.334Z,19.50
2018-04-17T19:36:59.451Z,19.26
2018-04-17T19:42:00.844Z,19.18
2018-04-17T19:47:02.167Z,19.16
2018-04-17T19:52:03.559Z,19.08
2018-04-17T19:57:04.864Z,18.90
2018-04-17T20:02:06.389Z,18.89
2018-04-17T20:07:07.698Z,18.95
2018-04-17T20:12:09.002Z,18.84
2018-04-17T20:17:11.087Z,18.72
2018-04-17T20:22:12.580Z,18.47
2018-04-17T20:27:13.878Z,18.33
2018-04-17T20:32:15.183Z,18.19
2018-04-17T20:37:17.259Z,18.12
2018-04-17T20:42:18.563Z,18.12
2018-04-17T20:47:19.882Z,18.04
2018-04-17T20:52:21.285Z,17.98
2018-04-17T20:57:22.594Z,17.77
2018-04-17T21:02:23.893Z,17.70
2018-04-17T21:07:25.209Z,17.73
2018-04-17T21:12:26.505Z,17.65
2018-04-17T21:17:27.813Z,17.56
2018-04-17T21:22:29.879Z,17.44
2018-04-17T21:27:31.186Z,17.35
2018-04-17T21:32:32.478Z,17.34
2018-04-17T21:37:33.778Z,17.30
2018-04-17T21:42:35.822Z,17.22
2018-04-17T21:47:37.123Z,17.16
2018-04-17T21:52:38.446Z,17.11
2018-04-17T21:57:39.745Z,17.08
2018-04-17T22:02:41.793Z,17.02
2018-04-17T22:07:43.081Z,17.00
2018-04-17T22:12:44.398Z,16.94
2018-04-17T22:17:45.706Z,16.84
2018-04-17T22:22:47.765Z,16.73
2018-04-17T22:27:49.083Z,16.66
2018-04-17T22:32:50.397Z,16.55
2018-04-17T22:37:52.454Z,16.58
2018-04-17T22:42:53.786Z,16.50
2018-04-17T22:47:55.105Z,16.51
2018-04-17T22:52:56.437Z,16.44
2018-04-17T22:57:57.752Z,16.37
2018-04-17T23:02:59.069Z,16.22
2018-04-17T23:08:00.375Z,16.17
2018-04-17T23:13:01.681Z,16.08
2018-04-17T23:18:02.978Z,16.06
2018-04-17T23:23:04.270Z,15.99
2018-04-17T23:28:05.558Z,15.84
2018-04-17T23:33:06.870Z,15.75
2018-04-17T23:38:08.168Z,15.45
2018-04-17T23:43:09.459Z,15.43
2018-04-17T23:48:11.533Z,15.15
2018-04-17T23:53:12.859Z,15.14
2018-04-17T23:58:14.890Z,15.37
